Time;durP1;ratioP1;P1;durP2;ratioP2;P2;SDS_P1;SDS_P2;PMS_P1;PMS_P2;Temp;Humidity;BMP_temperature;BMP_pressure;BME280_temperature;BME280_humidity;BME280_pressure;Samples;Min_cycle;Max_cycle;Signal;HPM_P1;HPM_P2
2022/11/25 00:01:32;;;;;;;0.00;0.00;;;;;;;8.80;73.24;99132.25;7363087;19;20451;-58
2022/11/25 00:03:58;;;;;;;;;;;;;;;8.83;73.14;99132.13;7363900;19;20022;-59
2022/11/25 00:06:32;;;;;;;0.00;0.00;;;;;;;8.78;73.39;99134.94;7364329;19;22041;-58
2022/11/25 00:09:19;;;;;;;0.00;0.00;;;;;;;8.78;73.08;99147.94;7361739;19;20010;-58
2022/11/25 00:11:44;;;;;;;0.00;0.00;;;;;;;8.75;73.39;99157.63;7363917;19;20654;-59
2022/11/25 00:14:13;;;;;;;0.00;0.00;;;;;;;8.67;73.37;99147.53;7362661;19;20012;-56
2022/11/25 00:16:38;;;;;;;0.00;0.00;;;;;;;8.60;73.49;99138.25;7364297;19;20002;-58
2022/11/25 00:19:04;;;;;;;0.10;0.10;;;;;;;8.67;73.59;99159.66;7360219;19;20018;-58
2022/11/25 00:21:32;;;;;;;0.03;0.03;;;;;;;8.57;73.47;99144.44;7362780;19;20500;-58
2022/11/25 00:24:03;;;;;;;0.00;0.00;;;;;;;8.35;73.27;99114.91;7362034;19;20010;-58
2022/11/25 00:26:31;;;;;;;0.00;0.00;;;;;;;8.61;73.45;99175.53;7362827;19;20011;-58
2022/11/25 00:28:58;;;;;;;0.00;0.00;;;;;;;8.67;73.93;99196.09;7361691;19;20010;-58
2022/11/25 00:31:29;;;;;;;0.00;0.00;;;;;;;8.51;73.64;99175.88;7364688;19;20010;-58
2022/11/25 00:33:55;;;;;;;0.00;0.00;;;;;;;8.65;73.52;99223.94;7362284;19;20771;-58
2022/11/25 00:36:26;;;;;;;0.00;0.00;;;;;;;8.64;74.04;99223.09;7364611;19;20003;-58
2022/11/25 00:38:58;;;;;;;0.00;0.00;;;;;;;8.64;73.60;99222.25;7363917;19;20030;-58
2022/11/25 00:46:58;;;;;;;0.00;0.00;;;;;;;8.57;73.63;99243.31;7364042;19;20022;-57
2022/11/25 00:49:23;;;;;;;0.00;0.00;;;;;;;8.43;73.52;99229.13;7364238;19;20014;-56
2022/11/25 00:51:49;;;;;;;0.00;0.00;;;;;;;8.50;73.77;99244.44;7361423;19;20043;-58
2022/11/25 00:54:14;;;;;;;0.00;0.00;;;;;;;8.47;73.87;99243.72;7363317;19;20039;-58
2022/11/25 00:56:40;;;;;;;0.00;0.00;;;;;;;8.49;73.96;99271.34;7361599;19;20021;-58
2022/11/25 00:59:06;;;;;;;0.00;0.00;;;;;;;8.41;73.87;99268.19;7360891;19;20064;-58
2022/11/25 01:01:32;;;;;;;0.00;0.00;;;;;;;8.27;74.21;99244.41;7359846;19;20778;-59
2022/11/25 01:03:57;;;;;;;0.00;0.00;;;;;;;8.45;74.16;99282.78;7364034;19;20070;-57
2022/11/25 01:06:24;;;;;;;0.00;0.00;;;;;;;8.44;73.92;99294.09;7364085;19;20010;-58
2022/11/25 01:08:49;;;;;;;0.00;0.00;;;;;;;8.44;73.90;99298.44;7362525;19;20012;-57
2022/11/25 01:11:19;;;;;;;0.10;0.10;;;;;;;8.45;74.03;99316.59;7361211;19;20006;-58
2022/11/25 01:13:45;;;;;;;0.00;0.00;;;;;;;8.34;73.78;99295.28;7362282;19;20498;-59
2022/11/25 01:16:18;;;;;;;0.00;0.00;;;;;;;8.43;73.71;99323.63;7361847;19;20014;-58
2022/11/25 01:18:44;;;;;;;0.00;0.00;;;;;;;8.31;73.63;99308.41;7360843;19;20019;-57
2022/11/25 01:21:09;;;;;;;0.00;0.00;;;;;;;8.41;73.55;99325.41;7361829;19;20148;-57
2022/11/25 01:23:36;;;;;;;0.00;0.00;;;;;;;8.00;74.12;99277.44;7363732;19;20125;-56
2022/11/25 01:26:07;;;;;;;0.10;0.10;;;;;;;8.28;73.75;99318.94;7362196;19;20043;-58
2022/11/25 01:28:33;;;;;;;0.00;0.00;;;;;;;8.35;74.13;99350.75;7362103;19;20827;-56
2022/11/25 01:31:03;;;;;;;0.08;0.08;;;;;;;8.39;73.83;99363.63;7359399;19;20066;-59
2022/11/25 01:33:33;;;;;;;0.00;0.00;;;;;;;8.37;73.70;99370.66;7360642;19;20014;-58
2022/11/25 01:36:07;;;;;;;0.05;0.05;;;;;;;8.28;73.91;99365.75;7360958;19;20357;-58
2022/11/25 01:38:33;;;;;;;0.10;0.10;;;;;;;8.33;73.79;99376.84;7361563;19;20007;-59
2022/11/25 01:40:59;;;;;;;0.03;0.03;;;;;;;8.21;73.91;99364.25;7362550;19;20010;-58
2022/11/25 01:43:26;;;;;;;0.00;0.00;;;;;;;8.33;73.80;99392.44;7361870;19;20722;-58
2022/11/25 01:46:13;;;;;;;0.00;0.00;;;;;;;8.17;73.79;99380.88;7361416;19;20529;-58
2022/11/25 01:48:45;;;;;;;0.00;0.00;;;;;;;7.98;74.05;99352.03;7357625;19;20567;-59
2022/11/25 01:51:27;;;;;;;0.00;0.00;;;;;;;7.80;73.79;99319.69;7360974;19;20003;-59
2022/11/25 01:53:57;;;;;;;0.00;0.00;;;;;;;8.30;74.28;99411.59;7362815;19;20018;-59
2022/11/25 01:56:25;;;;;;;0.00;0.00;;;;;;;8.29;74.18;99409.88;7359272;19;20423;-58
2022/11/25 01:58:50;;;;;;;0.00;0.00;;;;;;;8.07;74.18;99396.78;7360741;19;20674;-56
2022/11/25 02:01:16;;;;;;;0.00;0.00;;;;;;;8.27;74.01;99431.66;7362361;19;20015;-57
2022/11/25 02:03:46;;;;;;;0.00;0.00;;;;;;;7.82;73.94;99364.69;7361457;19;20432;-57
2022/11/25 02:06:23;;;;;;;0.00;0.00;;;;;;;8.29;73.90;99445.47;7361505;19;20037;-58
2022/11/25 02:08:52;;;;;;;0.00;0.00;;;;;;;8.28;73.84;99448.97;7359512;19;20014;-58
2022/11/25 02:11:19;;;;;;;0.00;0.00;;;;;;;8.28;74.40;99454.16;7359484;19;20098;-57
2022/11/25 02:13:47;;;;;;;0.00;0.00;;;;;;;8.29;73.84;99466.25;7358885;19;20023;-58
2022/11/25 02:16:13;;;;;;;0.00;0.00;;;;;;;8.14;73.95;99431.22;7360030;19;20041;-58
2022/11/25 02:18:38;;;;;;;0.00;0.00;;;;;;;8.28;74.25;99472.38;7359724;19;20103;-58
2022/11/25 02:21:04;;;;;;;0.00;0.00;;;;;;;8.27;74.29;99475.88;7358477;19;20006;-57
2022/11/25 02:23:38;;;;;;;0.00;0.00;;;;;;;8.30;74.11;99475.75;7360582;19;20014;-59
2022/11/25 02:26:04;;;;;;;0.00;0.00;;;;;;;8.28;73.98;99491.44;7358663;19;20010;-58
2022/11/25 02:28:31;;;;;;;0.00;0.00;;;;;;;8.24;74.00;99488.97;7359965;19;20102;-58
2022/11/25 02:30:57;;;;;;;0.00;0.00;;;;;;;8.29;73.95;99500.06;7359436;19;20448;-59
2022/11/25 02:33:24;;;;;;;0.00;0.00;;;;;;;8.30;74.13;99509.56;7360821;19;22384;-57
2022/11/25 02:35:53;;;;;;;0.00;0.00;;;;;;;8.30;73.81;99504.38;7359541;19;20006;-58
2022/11/25 02:38:43;;;;;;;0.00;0.00;;;;;;;8.33;74.10;99514.69;7359555;19;20562;-58
2022/11/25 02:41:13;;;;;;;0.08;0.08;;;;;;;8.34;73.91;99532.00;7361072;19;20733;-58
2022/11/25 02:43:39;;;;;;;0.00;0.00;;;;;;;8.25;74.05;99512.31;7365065;19;20142;-59
2022/11/25 02:46:10;;;;;;;0.08;0.08;;;;;;;8.40;73.96;99537.03;7365637;19;20021;-58
2022/11/25 02:48:37;;;;;;;0.00;0.00;;;;;;;8.30;73.78;99522.56;7366015;19;20021;-58
2022/11/25 02:51:04;;;;;;;0.00;0.00;;;;;;;8.41;74.19;99538.72;7366620;19;20020;-58
2022/11/25 02:53:29;;;;;;;0.00;0.00;;;;;;;8.38;74.09;99538.84;7364670;19;20014;-57
2022/11/25 02:55:55;;;;;;;0.10;0.10;;;;;;;8.40;74.10;99544.81;7366224;19;20016;-58
2022/11/25 02:58:20;;;;;;;0.10;0.10;;;;;;;8.41;74.27;99538.72;7358086;19;20021;-58
2022/11/25 03:00:46;;;;;;;0.00;0.00;;;;;;;8.47;73.71;99554.16;7363345;19;20817;-58
2022/11/25 03:03:12;;;;;;;0.10;0.10;;;;;;;8.47;73.80;99554.16;7366091;19;20017;-58
2022/11/25 03:05:38;;;;;;;0.00;0.00;;;;;;;8.45;73.58;99553.31;7363654;19;20442;-57
2022/11/25 03:08:05;;;;;;;0.00;0.00;;;;;;;8.46;73.62;99561.97;7363772;19;20014;-59
2022/11/25 03:10:30;;;;;;;0.10;0.10;;;;;;;8.46;73.49;99557.63;7366185;19;20809;-58
2022/11/25 03:12:56;;;;;;;0.00;0.00;;;;;;;8.39;73.30;99563.94;7365395;19;20010;-58
2022/11/25 03:15:22;;;;;;;0.00;0.00;;;;;;;8.37;72.98;99560.53;7366989;19;20566;-58
2022/11/25 03:17:47;;;;;;;0.10;0.10;;;;;;;8.14;73.25;99529.16;7363038;19;20014;-56
2022/11/25 03:20:14;;;;;;;0.00;0.00;;;;;;;8.34;73.54;99563.19;7365614;19;20828;-58
2022/11/25 03:22:40;;;;;;;0.00;0.00;;;;;;;8.46;73.36;99603.59;7366329;19;20015;-58
2022/11/25 03:25:06;;;;;;;0.00;0.00;;;;;;;8.38;73.38;99590.84;7366296;19;20034;-56
2022/11/25 03:27:32;;;;;;;0.00;0.00;;;;;;;8.27;73.30;99578.16;7362837;19;20130;-58
2022/11/25 03:29:58;;;;;;;0.05;0.05;;;;;;;8.35;73.54;99601.31;7367412;19;20032;-59
2022/11/25 03:32:23;;;;;;;0.00;0.00;;;;;;;8.41;73.50;99616.75;7366282;19;20454;-58
2022/11/25 03:34:49;;;;;;;0.00;0.00;;;;;;;8.40;73.52;99615.06;7366812;19;20010;-58
2022/11/25 03:37:14;;;;;;;0.10;0.10;;;;;;;8.37;73.46;99615.19;7364017;19;20038;-58
2022/11/25 03:39:39;;;;;;;0.00;0.00;;;;;;;8.33;73.40;99618.72;7364584;19;20039;-58
2022/11/25 03:42:05;;;;;;;0.10;0.10;;;;;;;8.35;73.20;99627.31;7362992;19;20023;-59
2022/11/25 03:44:30;;;;;;;0.00;0.00;;;;;;;8.14;73.19;99596.78;7364575;19;20043;-58
2022/11/25 03:46:56;;;;;;;0.10;0.10;;;;;;;8.36;73.32;99636.84;7363973;19;20033;-59
2022/11/25 03:49:21;;;;;;;0.00;0.00;;;;;;;8.35;73.44;99645.53;7364268;19;20014;-58
2022/11/25 03:51:47;;;;;;;0.00;0.00;;;;;;;8.25;73.41;99636.31;7363467;19;20039;-58
2022/11/25 03:54:13;;;;;;;0.00;0.00;;;;;;;8.23;73.47;99649.38;7363139;19;20018;-57
2022/11/25 03:56:39;;;;;;;0.10;0.10;;;;;;;8.29;73.29;99648.31;7364472;19;20765;-58
2022/11/25 03:59:04;;;;;;;0.10;0.10;;;;;;;8.30;73.41;99657.81;7362240;19;20006;-59
2022/11/25 04:01:30;;;;;;;0.00;0.00;;;;;;;8.17;73.33;99653.91;7365875;19;20070;-58
2022/11/25 04:03:55;;;;;;;0.10;0.10;;;;;;;8.23;73.40;99677.97;7356391;19;20773;-59
2022/11/25 04:06:22;;;;;;;0.00;0.00;;;;;;;8.23;73.54;99675.38;7363170;19;20736;-58
2022/11/25 04:08:48;;;;;;;0.10;0.10;;;;;;;8.16;73.19;99679.06;7356677;19;20011;-59
2022/11/25 04:11:14;;;;;;;0.00;0.00;;;;;;;8.20;73.23;99690.22;7361608;19;20021;-58
2022/11/25 04:13:39;;;;;;;0.00;0.00;;;;;;;8.23;73.27;99710.94;7364039;19;20078;-58
2022/11/25 04:16:05;;;;;;;0.00;0.00;;;;;;;8.15;73.49;99694.69;7365695;19;20036;-58
2022/11/25 04:18:30;;;;;;;0.10;0.10;;;;;;;8.13;73.64;99689.53;7362941;19;20101;-58
2022/11/25 04:20:56;;;;;;;0.00;0.00;;;;;;;8.04;73.77;99685.44;7358508;19;20018;-57
2022/11/25 04:23:22;;;;;;;0.10;0.10;;;;;;;8.21;73.61;99715.31;7361745;19;20026;-59
2022/11/25 04:25:49;;;;;;;0.10;0.10;;;;;;;8.18;73.29;99718.00;7361891;19;20006;-58
2022/11/25 04:28:15;;;;;;;0.10;0.10;;;;;;;8.16;73.52;99722.38;7364204;19;20018;-58
2022/11/25 04:30:41;;;;;;;0.10;0.10;;;;;;;8.18;73.42;99718.88;7363093;19;20048;-63
2022/11/25 04:33:07;;;;;;;0.00;0.00;;;;;;;8.17;73.71;99718.91;7364674;19;20010;-58
2022/11/25 04:35:32;;;;;;;0.10;0.10;;;;;;;8.09;73.44;99713.91;7363914;19;20007;-59
2022/11/25 04:37:57;;;;;;;0.10;0.10;;;;;;;8.14;73.63;99721.59;7363941;19;20011;-58
2022/11/25 04:40:23;;;;;;;0.00;0.00;;;;;;;8.19;73.74;99736.16;7366674;19;20021;-59
2022/11/25 04:42:48;;;;;;;0.03;0.03;;;;;;;7.63;73.52;99652.81;7364262;19;20017;-58
2022/11/25 04:45:16;;;;;;;0.00;0.00;;;;;;;8.20;73.41;99763.88;7365985;19;20020;-58
2022/11/25 04:47:41;;;;;;;0.00;0.00;;;;;;;8.17;73.42;99755.31;7364742;19;20015;-58
2022/11/25 04:50:12;;;;;;;0.00;0.00;;;;;;;8.22;73.45;99756.91;7366296;19;20018;-57
2022/11/25 04:52:37;;;;;;;0.00;0.00;;;;;;;8.14;73.34;99761.44;7362773;19;20025;-59
2022/11/25 04:55:03;;;;;;;0.05;0.05;;;;;;;8.02;73.46;99748.81;7366014;19;21118;-59
2022/11/25 04:57:28;;;;;;;0.03;0.03;;;;;;;8.14;73.44;99771.00;7362719;19;20011;-58
2022/11/25 04:59:53;;;;;;;0.10;0.10;;;;;;;7.99;73.58;99744.53;7365852;19;20027;-58
2022/11/25 05:02:22;;;;;;;0.10;0.10;;;;;;;8.07;73.56;99762.53;7362062;19;20863;-58
2022/11/25 05:04:50;;;;;;;0.00;0.00;;;;;;;8.18;73.19;99789.09;7363494;19;20023;-58
2022/11/25 05:07:18;;;;;;;0.00;0.00;;;;;;;8.17;73.26;99794.34;7365583;19;20761;-59
2022/11/25 05:09:44;;;;;;;0.10;0.10;;;;;;;8.17;73.41;99797.78;7362436;19;20010;-58
2022/11/25 05:12:20;;;;;;;0.00;0.00;;;;;;;7.99;73.56;99775.72;7363725;19;20017;-58
2022/11/25 05:14:45;;;;;;;0.08;0.08;;;;;;;8.08;73.03;99790.22;7364885;19;20006;-59
2022/11/25 05:17:18;;;;;;;0.00;0.00;;;;;;;8.19;73.59;99808.13;7363453;19;21152;-59
2022/11/25 05:19:44;;;;;;;0.00;0.00;;;;;;;8.12;73.08;99811.81;7364910;19;20016;-59
2022/11/25 05:22:17;;;;;;;0.08;0.08;;;;;;;8.14;73.38;99816.06;7363845;19;20029;-63
2022/11/25 05:24:42;;;;;;;0.00;0.00;;;;;;;8.16;73.51;99823.81;7363964;19;20015;-57
2022/11/25 05:27:08;;;;;;;0.00;0.00;;;;;;;8.14;73.37;99831.66;7364659;19;20017;-57
2022/11/25 05:29:33;;;;;;;0.00;0.00;;;;;;;7.97;73.33;99808.72;7362703;19;20022;-59
2022/11/25 05:31:59;;;;;;;0.00;0.00;;;;;;;8.14;73.06;99836.00;7365042;19;20027;-58
2022/11/25 05:34:25;;;;;;;0.10;0.10;;;;;;;8.12;73.18;99843.00;7363298;19;20868;-58
2022/11/25 05:36:50;;;;;;;0.00;0.00;;;;;;;8.12;72.89;99853.41;7365387;19;20014;-56
2022/11/25 05:39:16;;;;;;;0.00;0.00;;;;;;;8.12;72.88;99858.63;7363797;19;20028;-58
2022/11/25 05:41:42;;;;;;;0.10;0.10;;;;;;;8.10;73.45;99866.44;7364980;19;20385;-58
2022/11/25 05:44:07;;;;;;;0.10;0.10;;;;;;;8.09;73.59;99879.47;7364128;19;20010;-58
2022/11/25 05:46:32;;;;;;;0.00;0.00;;;;;;;8.09;72.99;99874.28;7364315;19;20358;-59
2022/11/25 05:48:58;;;;;;;0.10;0.10;;;;;;;8.10;73.36;99891.59;7363395;19;20014;-58
2022/11/25 05:51:24;;;;;;;0.00;0.00;;;;;;;8.10;73.28;99902.00;7364364;19;20018;-58
2022/11/25 05:53:50;;;;;;;0.05;0.05;;;;;;;8.08;73.10;99904.63;7363292;19;20010;-58
2022/11/25 05:56:16;;;;;;;0.08;0.08;;;;;;;7.96;73.44;99890.22;7365473;19;20014;-56
2022/11/25 05:58:42;;;;;;;0.00;0.00;;;;;;;7.99;73.49;99892.72;7361158;19;20014;-58
2022/11/25 06:01:10;;;;;;;0.00;0.00;;;;;;;8.07;73.51;99916.78;7361761;19;20022;-58
2022/11/25 06:03:36;;;;;;;0.08;0.08;;;;;;;7.98;72.97;99909.22;7363379;19;20010;-59
2022/11/25 06:06:01;;;;;;;0.10;0.10;;;;;;;8.04;73.41;99929.84;7364802;19;20086;-58
2022/11/25 06:08:27;;;;;;;0.00;0.00;;;;;;;7.88;73.18;99910.31;7363626;19;20126;-58
2022/11/25 06:10:53;;;;;;;0.00;0.00;;;;;;;8.04;73.04;99937.66;7365742;19;20014;-57
2022/11/25 06:13:19;;;;;;;0.00;0.00;;;;;;;7.94;73.29;99923.16;7363703;19;20007;-59
2022/11/25 06:15:45;;;;;;;0.10;0.10;;;;;;;8.05;73.25;99951.50;7365695;19;20026;-59
2022/11/25 06:18:12;;;;;;;0.00;0.00;;;;;;;7.98;73.42;99944.75;7368148;19;20030;-59
2022/11/25 06:20:38;;;;;;;0.05;0.05;;;;;;;8.06;73.07;99964.50;7369700;19;20018;-59
2022/11/25 06:23:04;;;;;;;0.00;0.00;;;;;;;7.93;73.11;99947.47;7371148;19;20010;-59
2022/11/25 06:25:30;;;;;;;0.00;0.00;;;;;;;8.07;72.89;99975.75;7371829;19;20011;-58
2022/11/25 06:27:57;;;;;;;0.10;0.10;;;;;;;8.07;73.09;99966.19;7371510;19;20832;-58
2022/11/25 06:30:22;;;;;;;0.00;0.00;;;;;;;8.07;73.19;99992.19;7368571;19;20683;-59
2022/11/25 06:32:48;;;;;;;0.00;0.00;;;;;;;8.09;73.20;99988.69;7371054;19;20014;-59
2022/11/25 06:35:13;;;;;;;0.03;0.03;;;;;;;8.06;73.23;99982.69;7371449;19;20014;-57
2022/11/25 06:37:39;;;;;;;0.00;0.00;;;;;;;8.06;72.89;99987.03;7372393;19;20144;-58
2022/11/25 06:40:05;;;;;;;0.10;0.10;;;;;;;8.06;73.19;99994.84;7369439;19;20009;-58
2022/11/25 06:42:31;;;;;;;0.00;0.00;;;;;;;8.12;73.20;99993.84;7371997;19;20018;-58
2022/11/25 06:44:56;;;;;;;0.10;0.10;;;;;;;8.12;72.95;100010.28;7371415;19;20040;-58
2022/11/25 06:47:22;;;;;;;0.00;0.00;;;;;;;8.06;72.92;100008.69;7372180;19;20022;-58
2022/11/25 06:49:48;;;;;;;0.10;0.10;;;;;;;8.07;72.83;100002.59;7370666;19;20052;-58
2022/11/25 06:52:13;;;;;;;0.03;0.03;;;;;;;8.02;72.68;100003.59;7370542;19;20025;-56
2022/11/25 06:54:40;;;;;;;0.00;0.00;;;;;;;7.82;72.76;99959.88;7369349;19;20087;-58
2022/11/25 06:57:09;;;;;;;0.00;0.00;;;;;;;8.00;73.00;99990.59;7370172;19;20019;-58
2022/11/25 06:59:35;;;;;;;0.08;0.08;;;;;;;8.11;72.89;100018.09;7363189;19;20586;-58
2022/11/25 07:02:01;;;;;;;0.00;0.00;;;;;;;8.12;72.85;100025.03;7367261;19;20007;-59
2022/11/25 07:04:26;;;;;;;0.00;0.00;;;;;;;8.12;72.83;100019.84;7369613;19;20010;-57
2022/11/25 07:06:52;;;;;;;0.10;0.10;;;;;;;7.99;72.86;100004.50;7366939;19;20012;-58
2022/11/25 07:09:21;;;;;;;0.00;0.00;;;;;;;8.17;72.97;100031.00;7368672;19;20018;-59
2022/11/25 07:11:47;;;;;;;0.00;0.00;;;;;;;8.13;72.50;100027.59;7365768;19;20037;-59
2022/11/25 07:14:14;;;;;;;0.00;0.00;;;;;;;8.12;72.95;100030.25;7368480;19;20018;-57
2022/11/25 07:16:42;;;;;;;0.00;0.00;;;;;;;8.10;73.02;100040.66;7364432;19;20461;-58
2022/11/25 07:19:10;;;;;;;0.00;0.00;;;;;;;8.15;72.84;100046.59;7367672;19;20031;-58
2022/11/25 07:21:35;;;;;;;0.00;0.00;;;;;;;8.15;72.91;100050.94;7369203;19;20449;-58
2022/11/25 07:24:04;;;;;;;0.10;0.10;;;;;;;8.14;73.03;100050.09;7368582;19;20038;-58
2022/11/25 07:26:32;;;;;;;0.10;0.10;;;;;;;8.12;72.79;100045.84;7367795;19;20007;-59
2022/11/25 07:29:01;;;;;;;0.00;0.00;;;;;;;8.10;72.88;100058.84;7363034;19;20045;-58
2022/11/25 07:31:29;;;;;;;0.10;0.10;;;;;;;8.11;72.77;100076.19;7367737;19;20860;-58
2022/11/25 07:33:57;;;;;;;0.00;0.00;;;;;;;8.13;72.73;100073.56;7367184;19;20034;-59
2022/11/25 07:36:23;;;;;;;0.00;0.00;;;;;;;8.14;73.09;100070.06;7368888;19;20019;-57
2022/11/25 07:38:48;;;;;;;0.00;0.00;;;;;;;7.99;72.99;100050.44;7366158;19;20026;-58
2022/11/25 07:41:20;;;;;;;0.00;0.00;;;;;;;8.13;72.85;100074.41;7366465;19;20470;-58
2022/11/25 07:43:47;;;;;;;0.10;0.10;;;;;;;8.09;72.82;100074.50;7364988;19;20029;-58
2022/11/25 07:46:18;;;;;;;0.00;0.00;;;;;;;8.11;73.41;100091.81;7362579;19;20018;-56
2022/11/25 07:48:44;;;;;;;0.10;0.10;;;;;;;8.12;73.34;100082.25;7351619;19;20022;-59
2022/11/25 07:51:31;;;;;;;0.08;0.08;;;;;;;8.13;73.52;100094.34;7361356;19;20899;-58
2022/11/25 07:53:59;;;;;;;0.10;0.10;;;;;;;8.10;72.99;100099.63;7365133;19;20025;-58
2022/11/25 07:56:25;;;;;;;0.03;0.03;;;;;;;8.07;73.11;100103.16;7366248;19;20047;-59
2022/11/25 07:58:51;;;;;;;0.10;0.10;;;;;;;8.03;73.13;100098.91;7362946;19;20117;-57
2022/11/25 08:01:17;;;;;;;0.00;0.00;;;;;;;8.11;73.07;100106.53;7366224;19;20081;-58
2022/11/25 08:03:44;;;;;;;0.00;0.00;;;;;;;7.92;72.93;100090.50;7363364;19;20041;-58
2022/11/25 08:06:12;;;;;;;0.00;0.00;;;;;;;7.98;73.41;100101.59;7362582;19;20010;-58
2022/11/25 08:08:40;;;;;;;0.00;0.00;;;;;;;8.13;73.33;100125.56;7356562;19;20541;-58
2022/11/25 08:11:13;;;;;;;0.00;0.00;;;;;;;8.12;73.46;100142.06;7365382;19;20023;-58
2022/11/25 08:13:39;;;;;;;0.00;0.00;;;;;;;8.13;73.13;100149.81;7366596;19;20043;-59
2022/11/25 08:16:05;;;;;;;0.08;0.08;;;;;;;8.03;73.58;100143.97;7362509;19;20010;-59
2022/11/25 08:18:31;;;;;;;0.10;0.10;;;;;;;8.10;73.67;100151.63;7360976;19;20081;-57
2022/11/25 08:21:02;;;;;;;0.00;0.00;;;;;;;8.01;73.79;100135.34;7366499;19;20070;-56
2022/11/25 08:23:28;;;;;;;0.10;0.10;;;;;;;8.13;73.25;100165.44;7367724;19;20066;-59
2022/11/25 08:25:54;;;;;;;0.10;0.10;;;;;;;8.13;73.79;100170.63;7367747;19;20098;-59
2022/11/25 08:28:19;;;;;;;0.10;0.10;;;;;;;8.20;73.97;100184.34;7367316;19;20018;-57
2022/11/25 08:30:44;;;;;;;0.00;0.00;;;;;;;8.19;73.56;100182.63;7366064;19;20026;-58
2022/11/25 08:33:10;;;;;;;0.10;0.10;;;;;;;8.21;73.52;100191.25;7367095;19;20011;-58
2022/11/25 08:35:38;;;;;;;0.03;0.03;;;;;;;8.28;73.87;100198.06;7368282;19;20754;-59
2022/11/25 08:38:05;;;;;;;0.00;0.00;;;;;;;8.31;73.46;100209.25;7367976;19;20584;-59
2022/11/25 08:40:35;;;;;;;0.00;0.00;;;;;;;8.14;73.37;100182.75;7359681;19;20022;-58
2022/11/25 08:43:00;;;;;;;0.10;0.10;;;;;;;8.31;73.32;100209.25;7366340;19;20086;-58
2022/11/25 08:45:26;;;;;;;0.00;0.00;;;;;;;8.25;73.60;100209.38;7363540;19;20089;-58
2022/11/25 08:47:51;;;;;;;0.00;0.00;;;;;;;8.33;73.19;100211.81;7368189;19;20018;-59
2022/11/25 08:50:17;;;;;;;0.00;0.00;;;;;;;8.39;73.19;100232.53;7367022;19;20053;-57
2022/11/25 08:52:43;;;;;;;0.05;0.05;;;;;;;8.51;73.81;100252.22;7366555;19;20019;-58
2022/11/25 08:55:09;;;;;;;0.10;0.10;;;;;;;8.50;73.52;100264.38;7364806;19;20603;-58
2022/11/25 08:57:34;;;;;;;0.00;0.00;;;;;;;8.60;73.33;100266.78;7367952;19;20022;-58
2022/11/25 09:00:00;;;;;;;0.00;0.00;;;;;;;8.54;73.64;100252.16;7367750;19;20533;-57
2022/11/25 09:02:25;;;;;;;0.00;0.00;;;;;;;8.65;73.39;100273.59;7369763;19;20006;-57
2022/11/25 09:04:51;;;;;;;0.10;0.10;;;;;;;8.67;73.11;100268.34;7368255;19;20017;-59
2022/11/25 09:07:16;;;;;;;0.10;0.10;;;;;;;8.71;73.41;100272.63;7369028;19;20019;-58
2022/11/25 09:09:41;;;;;;;0.00;0.00;;;;;;;8.78;73.85;100276.81;7365659;19;21655;-59
2022/11/25 09:12:07;;;;;;;0.00;0.00;;;;;;;8.84;73.49;100276.66;7367814;19;20015;-59
2022/11/25 09:14:32;;;;;;;0.08;0.08;;;;;;;8.89;73.59;100271.38;7367024;19;20035;-59
2022/11/25 09:16:58;;;;;;;0.10;0.10;;;;;;;8.99;73.98;100276.31;7369568;19;20500;-59
2022/11/25 09:19:23;;;;;;;0.10;0.10;;;;;;;9.06;74.09;100280.50;7369047;19;20049;-59
2022/11/25 09:21:49;;;;;;;0.10;0.10;;;;;;;9.06;73.62;100267.47;7369163;19;20078;-57
2022/11/25 09:24:14;;;;;;;0.10;0.10;;;;;;;9.30;73.95;100291.22;7367415;19;20741;-58
2022/11/25 09:26:41;;;;;;;0.10;0.10;;;;;;;9.36;73.22;100296.28;7368839;19;20038;-58
2022/11/25 09:29:06;;;;;;;0.05;0.05;;;;;;;9.36;73.13;100301.50;7367479;19;20025;-58
2022/11/25 09:31:32;;;;;;;0.00;0.00;;;;;;;9.48;73.47;100301.22;7368814;19;20489;-58
2022/11/25 09:33:58;;;;;;;0.00;0.00;;;;;;;9.57;73.12;100310.53;7367949;19;20006;-58
2022/11/25 09:36:23;;;;;;;0.00;0.00;;;;;;;9.54;73.47;100288.03;7369965;19;20026;-59
2022/11/25 09:38:50;;;;;;;0.10;0.10;;;;;;;9.79;72.64;100326.53;7368058;19;20025;-58
2022/11/25 09:48:17;;;;;;;0.10;0.10;;;;;;;10.12;73.07;100356.94;7163973;19;2004435;-59
2022/11/25 09:50:51;;;;;;;0.10;0.10;;;;;;;10.20;72.72;100353.28;7367680;19;20054;-58
2022/11/25 09:54:04;;;;;;;0.00;0.00;;;;;;;10.33;73.33;100359.91;7373508;19;20034;-59
2022/11/25 09:56:39;;;;;;;0.08;0.08;;;;;;;10.44;72.87;100350.03;7271020;19;2004181;-59
2022/11/25 09:59:19;;;;;;;0.00;0.00;;;;;;;10.59;73.23;100367.88;7373747;19;20025;-59
2022/11/25 10:01:51;;;;;;;0.00;0.00;;;;;;;10.73;72.77;100374.47;7371811;19;19998;-59
2022/11/25 10:04:23;;;;;;;0.10;0.10;;;;;;;10.91;72.79;100366.09;7372171;19;20010;-59
2022/11/25 10:06:53;;;;;;;0.08;0.08;;;;;;;11.02;72.23;100374.47;7371646;19;20005;-58
2022/11/25 10:09:24;;;;;;;0.10;0.10;;;;;;;11.25;71.28;100383.38;7372857;19;20010;-58
2022/11/25 10:12:02;;;;;;;0.10;0.10;;;;;;;11.43;72.37;100385.41;7371686;19;20069;-58
2022/11/25 10:14:48;;;;;;;0.03;0.03;;;;;;;11.70;73.50;100407.22;7370057;19;20026;-59
2022/11/25 10:17:43;;;;;;;0.10;0.10;;;;;;;11.87;72.31;100410.19;7369119;19;20007;-59
2022/11/25 10:20:23;;;;;;;0.00;0.00;;;;;;;12.09;70.65;100412.94;7266393;19;2004517;-59
2022/11/25 10:22:59;;;;;;;0.00;0.00;;;;;;;12.31;70.34;100414.84;7368622;19;20011;-58
2022/11/25 10:25:29;;;;;;;0.10;0.10;;;;;;;12.46;69.83;100423.00;7367004;19;20003;-59
2022/11/25 10:27:54;;;;;;;0.00;0.00;;;;;;;12.59;69.57;100431.31;7366263;19;20500;-59
2022/11/25 10:30:23;;;;;;;0.00;0.00;;;;;;;12.74;68.39;100429.91;7366813;19;20121;-59
2022/11/25 10:33:20;;;;;;;0.03;0.03;;;;;;;12.99;70.16;100437.75;7365944;19;20528;-59
2022/11/25 10:35:51;;;;;;;0.00;0.00;;;;;;;13.09;68.51;100444.34;7257963;19;2004242;-59
2022/11/25 10:38:29;;;;;;;0.00;0.00;;;;;;;13.18;67.24;100419.56;7367135;19;20421;-59
2022/11/25 10:40:54;;;;;;;0.00;0.00;;;;;;;13.32;66.00;100446.13;7367952;19;20649;-58
2022/11/25 10:43:20;;;;;;;0.10;0.10;;;;;;;13.44;66.94;100443.06;7368038;19;20125;-59
2022/11/25 10:46:21;;;;;;;0.00;0.00;;;;;;;13.56;68.42;100425.97;7360922;19;20014;-59
2022/11/25 10:49:11;;;;;;;0.10;0.10;;;;;;;13.79;67.66;100450.44;7262763;19;2004855;-58
2022/11/25 10:51:40;;;;;;;0.03;0.03;;;;;;;13.80;64.80;100449.53;7363842;19;20078;-59
2022/11/25 10:54:32;;;;;;;0.10;0.10;;;;;;;13.89;66.84;100460.53;7367317;19;20006;-59
2022/11/25 10:56:59;;;;;;;0.00;0.00;;;;;;;13.82;64.81;100460.81;7365867;19;20040;-59
2022/11/25 10:59:34;;;;;;;0.00;0.00;;;;;;;13.90;65.41;100464.00;7362609;19;20848;-59
2022/11/25 11:02:17;;;;;;;0.10;0.10;;;;;;;14.00;66.41;100468.81;7362233;19;20009;-59
2022/11/25 11:05:18;;;;;;;0.10;0.10;;;;;;;14.18;67.93;100467.19;7364497;19;20439;-59
2022/11/25 11:07:45;;;;;;;0.10;0.10;;;;;;;14.24;65.92;100480.09;7264102;19;2004168;-58
2022/11/25 11:10:14;;;;;;;0.08;0.08;;;;;;;14.43;64.58;100487.19;7367752;19;20103;-57
2022/11/25 11:12:56;;;;;;;0.10;0.10;;;;;;;14.58;65.12;100477.84;7370233;19;20015;-58
2022/11/25 11:15:26;;;;;;;0.05;0.05;;;;;;;14.63;64.17;100462.72;7369296;19;20019;-59
2022/11/25 11:17:53;;;;;;;0.00;0.00;;;;;;;14.85;63.28;100487.19;7370131;19;20007;-59
2022/11/25 11:20:21;;;;;;;0.00;0.00;;;;;;;14.97;63.76;100491.03;7370295;19;20022;-58
2022/11/25 11:22:55;;;;;;;0.10;0.10;;;;;;;15.07;64.50;100488.84;7371631;19;20017;-59
2022/11/25 11:25:22;;;;;;;0.10;0.10;;;;;;;15.10;61.87;100500.06;7368696;19;20019;-59
2022/11/25 11:27:48;;;;;;;0.00;0.00;;;;;;;15.13;60.88;100478.91;7370060;19;20039;-59
2022/11/25 11:30:14;;;;;;;0.10;0.10;;;;;;;15.23;62.21;100495.97;7372130;19;20126;-59
2022/11/25 11:32:44;;;;;;;0.03;0.03;;;;;;;15.25;62.27;100470.44;7368441;19;20002;-59
2022/11/25 11:35:18;;;;;;;0.00;0.00;;;;;;;15.47;62.29;100488.75;7370955;19;20026;-59
2022/11/25 11:37:46;;;;;;;0.10;0.10;;;;;;;15.63;59.92;100494.19;7369235;19;20010;-58
2022/11/25 11:40:18;;;;;;;0.10;0.10;;;;;;;15.76;61.08;100505.84;7369454;19;20027;-59
2022/11/25 11:43:05;;;;;;;0.05;0.05;;;;;;;15.90;62.79;100507.81;7370193;19;20015;-58
2022/11/25 11:45:42;;;;;;;;;;;;;;;16.03;63.95;100498.41;7371150;19;20024;-59
2022/11/25 11:48:23;;;;;;;0.08;0.08;;;;;;;16.09;61.26;100518.31;7370847;19;20353;-58
2022/11/25 11:50:52;;;;;;;0.10;0.10;;;;;;;16.10;61.21;100504.22;7370579;19;20018;-59
2022/11/25 11:53:44;;;;;;;0.10;0.10;;;;;;;16.27;59.60;100514.81;7367602;19;20544;-59
2022/11/25 11:56:29;;;;;;;0.00;0.00;;;;;;;16.32;61.22;100536.50;7268448;19;2004539;-59